Astoria, OR

4:33 PM PST on December 28, 2014 (GMT -0800)
The Slope of South | Change Station
CLOSE
Current Station
Personal Weather Station
Location: Astoria, OR
Elevation: 213 ft
Nearby Weather Stations
Active Advisory: Special Statement

Elev 213 ft 46.18 °N, 123.84 °W | Updated 10 minutes ago

Mostly Cloudy
Mostly Cloudy
45.3 °F
Feels Like 43 °F
N
4.2
Wind Variable Wind from WSW

Today
High -- | Low -- °F
--% Chance of Precip.
Yesterday
High -- | Low -- °F
Precip. -- in
7:57 AM 4:36 PM
First Quarter, 53% visible
Pressure 30.19 in
Visibility 10.0 miles
Clouds Few 8000 ft
Windchill 43 °F
Dew Point 41 °F
Humidity 84%
Rainfall 0.07 in
Snow Depth Not available.
UV 0 out of 12
Pollen .50 out of 12
Air Quality Not available.
Flu Activity Not available.
METAR KAST 282355Z AUTO 26011KT 10SM FEW080 07/03 A3019 RMK AO2 PK WND 29027/2320 RAE02B22E36 SLP224 P0001 60005 T00720028 10100 20067 58007

More Conditions Fewer Conditions

Pressure 30.19 in
Visibility 10.0 miles
Clouds Few 8000 ft
Windchill 43 °F
Dew Point 41 °F
Humidity 84%
Rainfall 0.07 in
Snow Depth Not available.
UV 0 out of 12
Pollen .50 out of 12
Air Quality Not available.
Flu Activity Not available.
METAR KAST 282355Z AUTO 26011KT 10SM FEW080 07/03 A3019 RMK AO2 PK WND 29027/2320 RAE02B22E36 SLP224 P0001 60005 T00720028 10100 20067 58007

More Conditions Fewer Conditions

10-Day Weather Forecast

Almanac

Astronomy

Dec. 28, 2014 Rise Set
Actual Time
Civil Twilight
Nautical Twilight
Astronomical Twilight
Moon
Length of Visible Light
Length of Day
Tomorrow will be .
, % of the Moon is Illuminated

Today's Extremes

State Highs State Lows

Community

WunderPhotos

Upload Photos

1,781,472 photos uploaded!

WunderBlogs® & News

Nearby

Air Quality

  Air Quality AQ Index Pollutant
Not available.

Snow Depth

Station Depth Elevation

Earthquake Activity

City Distance Mag. Time & Date
Minimum magnitude displayed is 2.5.

Coastal Water Temperatures

Place Temperature

Nearby Weather Stations